Terminal Aerodrome Forecast
Issued by NWS

Home | Current Version | Previous Version | Text Only | Print | Product List | Glossary On
Versions: 1 2 3 4 5 6 7 8 9 10 11 12 13 14 15 16 17 18 19 20 21 22 23 24 25 26 27 28 29 30 31 32
155
FTUS41 KOKX 302035 AAA
TAFTEB
TAF AMD
KTEB 302035Z 3021/3118 12007KT 6SM SHRA BR BKN035
      TEMPO 3021/3023 4SM TSRA OVC025CB
     FM310100 15005KT P6SM SCT025 OVC050
      TEMPO 3101/3104 4SM SHRA OVC025
     FM310400 VRB03KT P6SM OVC025
     FM310800 VRB03KT 4SM SHRA BR OVC015
     FM311600 12007KT 5SM -SHRA BR SCT015 OVC025=

USA.gov is the U.S. government's official web portal to all federal, state and local government web resources and services.